Time;durP1;ratioP1;P1;durP2;ratioP2;P2;SDS_P1;SDS_P2;PMS_P1;PMS_P2;Temp;Humidity;BMP_temperature;BMP_pressure;BME280_temperature;BME280_humidity;BME280_pressure;Samples;Min_cycle;Max_cycle;Signal;HPM_P1;HPM_P2
2022/01/29 00:01:10;;;;;;;18.07;12.80;;;9.20;99.90;;;;;;5075067;28;20181;-69
2022/01/29 00:03:38;;;;;;;19.93;13.43;;;9.10;99.90;;;;;;5073632;28;20181;-69
2022/01/29 00:06:04;;;;;;;17.03;12.33;;;9.00;99.90;;;;;;5052748;28;20477;-69
2022/01/29 00:08:30;;;;;;;15.93;11.03;;;9.00;99.90;;;;;;5071431;28;20432;-69
2022/01/29 00:11:03;;;;;;;16.40;11.80;;;9.00;99.90;;;;;;5073698;28;20509;-69
2022/01/29 00:13:28;;;;;;;17.03;12.37;;;8.90;99.90;;;;;;5073907;28;20533;-68
2022/01/29 00:15:54;;;;;;;17.03;11.90;;;8.90;99.90;;;;;;5073890;28;20886;-69
2022/01/29 00:18:23;;;;;;;17.30;12.80;;;8.90;99.90;;;;;;5076778;28;20263;-69
2022/01/29 00:20:48;;;;;;;17.37;11.70;;;9.00;99.90;;;;;;5074327;28;20944;-69
2022/01/29 00:23:14;;;;;;;14.83;11.23;;;9.00;99.90;;;;;;5034909;28;20188;-68
2022/01/29 00:25:40;;;;;;;17.27;11.70;;;9.00;99.90;;;;;;5016702;28;20197;-68
2022/01/29 00:28:06;;;;;;;17.10;11.30;;;8.90;99.90;;;;;;5016627;28;20750;-68
2022/01/29 00:30:38;;;;;;;13.87;12.10;;;8.90;99.90;;;;;;5016983;28;20237;-68
2022/01/29 00:33:04;;;;;;;14.10;11.20;;;9.00;99.90;;;;;;5033802;28;20167;-69
2022/01/29 00:35:30;;;;;;;14.83;11.60;;;8.90;99.90;;;;;;5016367;28;20428;-69
2022/01/29 00:37:56;;;;;;;18.30;13.23;;;9.00;99.90;;;;;;5015682;28;20182;-69
2022/01/29 00:40:22;;;;;;;15.50;11.87;;;8.90;99.90;;;;;;5034248;28;20190;-69
2022/01/29 00:42:48;;;;;;;15.97;13.20;;;8.90;99.90;;;;;;5032856;28;20542;-69
2022/01/29 00:45:14;;;;;;;16.73;12.37;;;8.90;99.90;;;;;;5029114;28;20416;-69
2022/01/29 00:47:40;;;;;;;15.93;11.57;;;8.90;99.90;;;;;;5053531;28;20421;-68
2022/01/29 00:50:06;;;;;;;17.43;12.57;;;9.00;99.90;;;;;;5035031;28;20561;-69
2022/01/29 00:52:32;;;;;;;17.57;13.20;;;9.00;99.90;;;;;;5052920;28;20221;-69
2022/01/29 00:54:58;;;;;;;17.30;12.60;;;9.10;99.90;;;;;;5035578;28;20458;-68
2022/01/29 00:57:28;;;;;;;17.37;13.20;;;9.10;99.90;;;;;;5053636;28;20417;-69
2022/01/29 00:59:53;;;;;;;17.77;13.40;;;9.20;99.90;;;;;;5035791;28;20178;-69
2022/01/29 01:02:19;;;;;;;19.27;14.70;;;9.10;99.90;;;;;;5035873;28;20431;-68
2022/01/29 01:04:45;;;;;;;17.57;13.30;;;9.10;99.90;;;;;;5035174;28;20559;-80
2022/01/29 01:07:11;;;;;;;19.00;13.83;;;9.20;99.90;;;;;;5035568;28;20205;-69
2022/01/29 01:09:37;;;;;;;19.07;14.83;;;9.10;99.90;;;;;;5053544;28;20435;-68
2022/01/29 01:12:03;;;;;;;18.63;15.00;;;9.20;99.90;;;;;;5034972;28;20213;-69
2022/01/29 01:14:29;;;;;;;24.03;15.50;;;9.10;99.90;;;;;;5053341;28;20949;-68
2022/01/29 01:16:55;;;;;;;27.37;16.80;;;9.10;99.90;;;;;;5052490;28;20404;-69
2022/01/29 01:19:25;;;;;;;25.13;16.10;;;9.10;99.90;;;;;;5053224;28;20812;-68
2022/01/29 01:21:56;;;;;;;22.40;14.50;;;9.00;99.90;;;;;;5054576;28;20217;-69
2022/01/29 01:24:22;;;;;;;27.93;15.27;;;8.90;99.90;;;;;;5072368;28;20423;-69
2022/01/29 01:26:49;;;;;;;23.90;15.73;;;8.90;99.90;;;;;;5072860;28;20415;-82
2022/01/29 01:29:15;;;;;;;22.87;15.63;;;8.90;99.90;;;;;;5072838;28;20753;-69
2022/01/29 01:31:43;;;;;;;25.90;16.00;;;8.90;99.90;;;;;;5072569;28;20569;-68
2022/01/29 01:34:09;;;;;;;21.63;16.20;;;8.80;99.90;;;;;;5070359;28;20468;-69
2022/01/29 01:36:42;;;;;;;23.13;16.80;;;8.80;99.90;;;;;;5071340;28;20497;-69
2022/01/29 01:39:10;;;;;;;22.37;16.47;;;8.30;99.90;;;;;;5071970;28;20418;-69
2022/01/29 01:41:40;;;;;;;22.87;16.30;;;8.80;99.90;;;;;;5072811;28;20443;-69
2022/01/29 01:44:10;;;;;;;25.70;16.83;;;8.70;99.90;;;;;;5053727;28;20469;-69
2022/01/29 01:46:36;;;;;;;22.20;15.83;;;8.80;99.90;;;;;;5071511;28;20415;-69
2022/01/29 01:49:02;;;;;;;22.80;16.03;;;8.80;99.90;;;;;;5056087;28;20420;-69
2022/01/29 01:51:30;;;;;;;21.40;16.63;;;8.90;99.90;;;;;;5051278;28;20464;-69
2022/01/29 01:53:55;;;;;;;23.10;16.27;;;8.80;99.90;;;;;;5051817;28;20383;-69
2022/01/29 01:56:21;;;;;;;22.40;16.23;;;8.80;99.90;;;;;;5052523;28;20412;-69
2022/01/29 01:58:47;;;;;;;21.30;16.13;;;8.80;99.90;;;;;;5050879;28;20565;-83
2022/01/29 02:01:13;;;;;;;26.37;16.97;;;8.80;99.90;;;;;;5050684;28;20295;-68
2022/01/29 02:03:39;;;;;;;23.50;15.90;;;8.80;99.90;;;;;;5071135;28;20401;-68
2022/01/29 02:06:05;;;;;;;20.77;14.57;;;8.90;99.90;;;;;;5070278;28;20423;-69
2022/01/29 02:08:31;;;;;;;22.20;15.27;;;8.70;99.90;;;;;;5072446;28;20427;-68
2022/01/29 02:11:05;;;;;;;20.47;14.87;;;8.80;99.90;;;;;;5071427;28;20473;-69
2022/01/29 02:13:31;;;;;;;24.50;15.80;;;8.80;99.90;;;;;;5071164;28;20682;-69
2022/01/29 02:15:58;;;;;;;23.30;17.07;;;8.90;99.90;;;;;;5071214;28;20922;-69
2022/01/29 02:18:24;;;;;;;19.13;14.43;;;8.90;99.90;;;;;;5071995;28;20412;-69
2022/01/29 02:20:51;;;;;;;20.57;15.47;;;8.80;99.90;;;;;;5067330;28;20457;-83
2022/01/29 02:23:20;;;;;;;19.13;15.00;;;8.90;99.90;;;;;;5032473;28;20456;-68
2022/01/29 02:25:50;;;;;;;19.67;14.67;;;8.90;99.90;;;;;;5032286;28;20968;-68
2022/01/29 02:28:24;;;;;;;19.27;15.53;;;8.90;99.90;;;;;;5031425;28;20468;-69
2022/01/29 02:31:01;;;;;;;26.73;14.93;;;9.00;99.90;;;;;;5031364;28;20473;-83
2022/01/29 02:33:28;;;;;;;22.17;14.00;;;9.00;99.90;;;;;;5032302;28;20394;-69
2022/01/29 02:35:55;;;;;;;24.07;15.20;;;9.10;99.90;;;;;;5031411;28;20741;-69
2022/01/29 02:38:23;;;;;;;19.27;14.53;;;9.10;99.90;;;;;;5014334;28;20427;-69
2022/01/29 02:40:54;;;;;;;18.80;13.70;;;9.10;99.90;;;;;;5032281;28;20483;-83
2022/01/29 02:43:23;;;;;;;20.53;14.83;;;9.10;99.90;;;;;;5032087;28;20413;-69
2022/01/29 02:45:52;;;;;;;19.63;14.50;;;9.10;99.90;;;;;;5034589;28;20745;-69
2022/01/29 02:48:18;;;;;;;17.10;15.20;;;9.10;99.90;;;;;;5018098;28;20940;-69
2022/01/29 02:50:44;;;;;;;19.90;15.23;;;9.10;99.90;;;;;;5035982;28;20439;-68
2022/01/29 02:53:10;;;;;;;23.53;16.53;;;9.00;99.90;;;;;;5034866;28;20443;-69
2022/01/29 02:55:37;;;;;;;21.67;15.53;;;9.00;99.90;;;;;;5035972;28;20413;-69
2022/01/29 02:58:03;;;;;;;19.30;13.97;;;9.00;99.90;;;;;;5034961;28;20190;-69
2022/01/29 03:00:28;;;;;;;19.50;14.33;;;9.10;99.90;;;;;;5019111;28;20423;-71
2022/01/29 03:02:54;;;;;;;21.97;14.63;;;9.00;99.90;;;;;;5035253;28;20180;-84
2022/01/29 03:05:20;;;;;;;21.80;16.60;;;9.00;99.90;;;;;;5035325;28;20241;-69
2022/01/29 03:07:46;;;;;;;23.47;14.50;;;9.00;99.90;;;;;;5017721;28;20232;-68
2022/01/29 03:10:12;;;;;;;23.17;15.23;;;9.00;99.90;;;;;;5034871;28;20425;-69
2022/01/29 03:12:40;;;;;;;20.83;15.40;;;8.80;99.90;;;;;;5017815;28;20214;-69
2022/01/29 03:15:07;;;;;;;22.50;16.50;;;8.80;99.90;;;;;;5016852;28;20558;-69
2022/01/29 03:17:33;;;;;;;22.90;16.17;;;8.80;99.90;;;;;;5018190;28;20435;-69
2022/01/29 03:19:59;;;;;;;18.10;13.67;;;8.90;99.90;;;;;;5038169;28;20412;-69
2022/01/29 03:22:24;;;;;;;20.77;15.20;;;9.00;99.90;;;;;;5066169;28;20809;-69
2022/01/29 03:24:50;;;;;;;22.70;13.77;;;8.90;99.90;;;;;;5075574;28;20192;-69
2022/01/29 03:27:16;;;;;;;21.23;14.80;;;9.00;99.90;;;;;;5056653;28;20205;-69
2022/01/29 03:29:41;;;;;;;20.90;14.97;;;8.90;99.90;;;;;;5074937;28;20180;-68
2022/01/29 03:32:07;;;;;;;21.13;14.80;;;9.00;99.90;;;;;;5072914;28;20197;-69
2022/01/29 03:34:33;;;;;;;20.27;13.60;;;9.00;99.90;;;;;;5073803;28;20185;-69
2022/01/29 03:36:59;;;;;;;19.40;14.43;;;8.90;99.90;;;;;;5074524;28;20925;-69
2022/01/29 03:39:27;;;;;;;17.73;13.73;;;9.00;99.90;;;;;;5073587;28;20169;-69
2022/01/29 03:41:54;;;;;;;17.07;12.13;;;9.00;99.90;;;;;;5075256;28;20519;-77
2022/01/29 03:44:20;;;;;;;14.67;12.30;;;9.00;99.90;;;;;;5073835;28;20427;-69
2022/01/29 03:46:47;;;;;;;15.30;12.57;;;9.00;99.90;;;;;;5075039;28;20411;-68
2022/01/29 03:49:13;;;;;;;19.57;13.37;;;9.00;99.90;;;;;;5074152;28;20415;-69
2022/01/29 03:51:39;;;;;;;18.30;13.57;;;9.10;99.90;;;;;;5074959;28;20492;-68
2022/01/29 03:54:05;;;;;;;20.70;12.70;;;9.00;99.90;;;;;;5072910;28;20514;-69
2022/01/29 03:56:31;;;;;;;16.20;13.33;;;9.10;99.90;;;;;;5072784;28;20199;-69
2022/01/29 03:58:56;;;;;;;17.07;12.40;;;9.10;99.90;;;;;;5074625;28;20180;-82
2022/01/29 04:01:22;;;;;;;15.70;12.47;;;9.00;99.90;;;;;;5073063;28;20181;-69
2022/01/29 04:03:48;;;;;;;18.93;13.40;;;9.10;99.90;;;;;;5056628;28;20177;-69
2022/01/29 04:06:13;;;;;;;17.13;12.40;;;9.00;99.90;;;;;;5062425;28;20216;-69
2022/01/29 04:08:41;;;;;;;14.50;13.00;;;9.00;99.90;;;;;;5052670;28;20676;-69
2022/01/29 04:11:12;;;;;;;17.07;12.87;;;9.00;99.90;;;;;;5053557;28;20296;-69
2022/01/29 04:13:42;;;;;;;19.80;14.60;;;9.20;99.90;;;;;;5053345;28;20416;-69
2022/01/29 04:16:08;;;;;;;15.57;12.87;;;9.00;99.90;;;;;;5035766;28;20420;-69
2022/01/29 04:18:34;;;;;;;14.37;12.23;;;9.00;99.90;;;;;;5054320;28;20750;-69
2022/01/29 04:21:00;;;;;;;12.67;11.27;;;9.00;99.90;;;;;;5048721;28;20237;-74
2022/01/29 04:23:26;;;;;;;12.63;10.60;;;9.00;99.90;;;;;;5034430;28;20417;-69
2022/01/29 04:25:53;;;;;;;17.60;13.40;;;9.00;99.90;;;;;;5034409;28;20531;-69
2022/01/29 04:28:21;;;;;;;12.70;11.37;;;9.10;99.90;;;;;;5033424;28;20807;-69
2022/01/29 04:30:56;;;;;;;14.80;11.47;;;9.00;99.90;;;;;;5034150;28;20838;-69
2022/01/29 04:35:48;;;;;;;12.23;10.90;;;9.10;99.90;;;;;;5034175;28;20464;-69
2022/01/29 04:38:14;;;;;;;11.10;10.00;;;9.10;99.90;;;;;;5044674;28;20173;-69
2022/01/29 04:40:40;;;;;;;11.27;10.03;;;9.10;99.90;;;;;;5036062;28;20558;-69
2022/01/29 04:43:06;;;;;;;12.03;9.73;;;9.00;99.90;;;;;;5053326;28;20451;-69
2022/01/29 04:45:32;;;;;;;11.97;10.67;;;9.00;99.90;;;;;;5053666;28;20775;-69
2022/01/29 04:47:57;;;;;;;13.13;10.13;;;9.00;99.90;;;;;;5053511;28;20408;-83
2022/01/29 04:50:23;;;;;;;11.60;10.40;;;9.10;99.90;;;;;;5051624;28;20986;-69
2022/01/29 04:52:49;;;;;;;10.80;9.67;;;9.10;99.90;;;;;;5053732;28;20178;-69
2022/01/29 04:55:15;;;;;;;11.43;10.13;;;9.20;99.90;;;;;;5052548;28;20419;-69
2022/01/29 04:57:41;;;;;;;11.17;9.87;;;9.20;99.90;;;;;;5035349;28;20174;-69
2022/01/29 05:00:12;;;;;;;10.83;9.73;;;9.20;99.90;;;;;;5053099;28;20184;-69
2022/01/29 05:02:38;;;;;;;9.37;8.53;;;9.20;99.90;;;;;;5053699;28;20416;-69
2022/01/29 05:05:05;;;;;;;9.97;8.97;;;9.20;99.90;;;;;;5052401;28;20474;-69
2022/01/29 05:07:31;;;;;;;9.67;8.50;;;9.10;99.90;;;;;;5051456;28;20466;-68
2022/01/29 05:09:57;;;;;;;9.27;8.20;;;9.10;99.90;;;;;;5034620;28;20529;-69
2022/01/29 05:12:31;;;;;;;9.03;8.23;;;9.10;99.90;;;;;;5015412;28;21002;-69
2022/01/29 05:28:04;;;;;;;6.80;5.70;;;9.30;99.90;;;;;;5032616;28;20404;-69
2022/01/29 05:30:30;;;;;;;6.30;5.70;;;9.30;99.90;;;;;;5032377;28;20425;-69
2022/01/29 05:32:56;;;;;;;7.50;6.23;;;9.30;99.90;;;;;;5015296;28;20429;-68
2022/01/29 05:35:22;;;;;;;5.80;5.30;;;9.30;99.90;;;;;;5032240;28;20393;-69
2022/01/29 05:37:50;;;;;;;6.47;5.80;;;9.30;99.90;;;;;;5014885;28;20579;-69
2022/01/29 05:40:17;;;;;;;6.40;5.80;;;9.30;99.90;;;;;;5014793;28;20175;-69
2022/01/29 05:42:42;;;;;;;5.60;5.17;;;9.30;99.90;;;;;;5032807;28;20408;-68
2022/01/29 05:45:09;;;;;;;6.40;5.80;;;9.30;99.90;;;;;;5014117;28;20511;-69
2022/01/29 05:47:35;;;;;;;5.30;4.90;;;9.20;99.90;;;;;;5032955;28;20174;-69
2022/01/29 05:50:02;;;;;;;6.30;5.80;;;9.20;99.90;;;;;;5032175;28;20943;-75
2022/01/29 05:52:28;;;;;;;5.80;5.30;;;9.30;99.90;;;;;;5032438;28;20492;-69
2022/01/29 05:54:53;;;;;;;6.07;5.60;;;9.30;99.90;;;;;;5032611;28;20433;-68
2022/01/29 05:57:19;;;;;;;7.00;6.40;;;9.20;99.90;;;;;;5031694;28;20209;-69
2022/01/29 05:59:45;;;;;;;6.43;5.90;;;9.30;99.90;;;;;;5014395;28;20193;-69
2022/01/29 06:02:10;;;;;;;7.23;6.53;;;9.30;99.90;;;;;;5033539;28;20182;-68
2022/01/29 06:04:36;;;;;;;7.20;6.60;;;9.30;99.90;;;;;;5035201;28;20253;-72
2022/01/29 06:07:03;;;;;;;8.00;7.30;;;9.30;99.90;;;;;;5032312;28;20183;-72
2022/01/29 06:09:29;;;;;;;8.23;7.43;;;9.30;99.90;;;;;;5041768;28;20182;-68
2022/01/29 06:11:54;;;;;;;7.83;7.20;;;9.30;99.90;;;;;;5035843;28;20465;-68
2022/01/29 06:14:20;;;;;;;6.60;6.00;;;9.30;99.90;;;;;;5014307;28;20210;-68
2022/01/29 06:16:46;;;;;;;7.20;6.57;;;9.30;99.90;;;;;;5032663;28;20174;-68
2022/01/29 06:19:11;;;;;;;7.93;7.23;;;9.30;99.90;;;;;;5031792;28;20257;-68
2022/01/29 06:21:37;;;;;;;8.43;7.53;;;9.20;99.90;;;;;;5032503;28;20584;-68
2022/01/29 06:24:03;;;;;;;8.63;7.83;;;9.30;99.90;;;;;;5031982;28;20190;-71
2022/01/29 06:26:29;;;;;;;8.93;8.13;;;9.40;99.90;;;;;;5036345;28;20219;-73
2022/01/29 06:28:55;;;;;;;9.20;8.30;;;9.20;99.90;;;;;;5043334;28;20434;-68
2022/01/29 06:31:20;;;;;;;10.03;8.40;;;9.30;99.90;;;;;;5033431;28;20647;-68
2022/01/29 06:33:46;;;;;;;9.80;8.80;;;9.30;99.90;;;;;;5032161;28;20258;-68
2022/01/29 06:36:12;;;;;;;10.80;9.03;;;9.30;99.90;;;;;;5033420;28;20177;-69
2022/01/29 06:38:38;;;;;;;11.37;9.07;;;9.30;99.90;;;;;;5030585;28;20533;-69
2022/01/29 06:41:04;;;;;;;11.00;9.90;;;9.40;99.90;;;;;;5033638;28;20235;-75
2022/01/29 06:43:29;;;;;;;11.20;9.77;;;9.40;99.90;;;;;;5042236;28;20198;-68
2022/01/29 06:45:56;;;;;;;11.67;8.80;;;9.40;99.90;;;;;;5032238;28;20413;-69
2022/01/29 06:48:21;;;;;;;11.00;9.87;;;9.40;99.90;;;;;;5043408;28;20178;-70
2022/01/29 06:50:47;;;;;;;11.73;10.53;;;9.40;99.90;;;;;;5047208;28;20464;-68
2022/01/29 06:53:13;;;;;;;11.63;9.67;;;9.40;99.90;;;;;;5007614;28;20240;-68
2022/01/29 06:55:39;;;;;;;14.10;10.80;;;9.40;99.90;;;;;;5052351;28;20182;-68
2022/01/29 06:58:05;;;;;;;13.03;11.20;;;9.40;99.90;;;;;;5034206;28;20604;-75
2022/01/29 07:00:31;;;;;;;11.70;10.23;;;9.50;99.90;;;;;;5032220;28;20440;-68
2022/01/29 07:02:56;;;;;;;12.80;11.13;;;9.40;99.90;;;;;;5033011;28;20574;-68
2022/01/29 07:05:22;;;;;;;11.80;10.53;;;9.40;99.90;;;;;;5038625;28;20432;-68
2022/01/29 07:07:48;;;;;;;13.00;11.30;;;9.50;99.90;;;;;;5039555;28;20178;-68
2022/01/29 07:10:14;;;;;;;12.37;11.07;;;9.50;99.90;;;;;;5041482;28;20429;-70
2022/01/29 07:12:40;;;;;;;11.80;10.33;;;9.50;99.90;;;;;;5043016;28;20289;-67
2022/01/29 07:15:08;;;;;;;13.53;11.60;;;9.50;99.90;;;;;;5031582;28;20580;-69
2022/01/29 07:17:35;;;;;;;13.27;10.73;;;9.50;99.90;;;;;;5042914;28;20448;-69
2022/01/29 07:20:00;;;;;;;14.17;12.57;;;9.60;99.90;;;;;;5028659;28;20475;-72
2022/01/29 07:22:26;;;;;;;18.80;11.93;;;9.50;99.90;;;;;;5032316;28;20492;-68
2022/01/29 07:24:52;;;;;;;12.10;10.80;;;9.50;99.90;;;;;;5026745;28;20794;-71
2022/01/29 07:27:17;;;;;;;12.80;11.07;;;9.60;99.90;;;;;;5051180;28;20256;-71
2022/01/29 07:29:43;;;;;;;14.47;11.97;;;9.60;99.90;;;;;;5043974;28;20167;-69
2022/01/29 07:32:10;;;;;;;13.63;11.37;;;9.60;99.90;;;;;;5022305;28;20241;-69
2022/01/29 07:34:37;;;;;;;13.93;11.63;;;9.60;99.90;;;;;;5044881;28;20181;-69
2022/01/29 07:37:03;;;;;;;14.73;11.50;;;9.60;99.90;;;;;;5049085;28;20432;-69
2022/01/29 07:39:29;;;;;;;14.57;11.20;;;9.60;99.90;;;;;;5040154;28;20433;-69
2022/01/29 07:41:55;;;;;;;13.40;12.00;;;9.60;99.90;;;;;;5047395;28;20444;-70
2022/01/29 07:44:21;;;;;;;14.40;11.80;;;9.60;99.90;;;;;;5039410;28;20433;-69
2022/01/29 07:46:47;;;;;;;13.77;12.27;;;9.60;99.90;;;;;;5035507;28;20414;-69
2022/01/29 07:49:12;;;;;;;13.63;12.10;;;9.50;99.90;;;;;;5039638;28;20451;-68
2022/01/29 07:51:41;;;;;;;15.77;12.67;;;9.50;99.90;;;;;;5035554;28;20210;-69
2022/01/29 07:54:08;;;;;;;16.80;14.13;;;9.50;99.90;;;;;;5035139;28;20746;-78
2022/01/29 07:56:34;;;;;;;14.53;12.70;;;9.40;99.90;;;;;;5036837;28;20408;-68
2022/01/29 07:59:00;;;;;;;13.97;12.47;;;9.40;99.90;;;;;;5055163;28;20412;-69
2022/01/29 08:01:26;;;;;;;15.40;13.80;;;9.40;99.90;;;;;;5049395;28;20436;-69
2022/01/29 08:03:52;;;;;;;15.67;12.87;;;9.40;99.90;;;;;;5049385;28;20429;-69
2022/01/29 08:06:21;;;;;;;12.93;10.87;;;9.50;99.90;;;;;;5037407;28;20245;-72
2022/01/29 08:08:48;;;;;;;17.50;13.77;;;9.70;99.90;;;;;;5045975;28;20923;-72
2022/01/29 08:11:14;;;;;;;15.33;12.23;;;9.90;99.90;;;;;;5054102;28;20951;-72
2022/01/29 08:13:39;;;;;;;15.87;13.20;;;10.10;99.90;;;;;;5035260;28;20461;-72
2022/01/29 08:16:06;;;;;;;13.20;11.80;;;10.50;99.90;;;;;;5017010;28;20462;-72
2022/01/29 08:18:32;;;;;;;14.40;12.90;;;10.80;99.90;;;;;;5034124;28;20419;-71
2022/01/29 08:20:57;;;;;;;15.37;13.13;;;11.10;99.90;;;;;;5034268;28;20465;-72
2022/01/29 08:23:24;;;;;;;13.63;12.23;;;11.30;99.90;;;;;;5035128;28;20438;-72
2022/01/29 08:25:50;;;;;;;14.23;12.73;;;11.50;99.90;;;;;;5043450;28;20940;-71
2022/01/29 08:28:16;;;;;;;14.90;12.80;;;11.60;99.90;;;;;;5049977;28;20230;-74
2022/01/29 08:30:43;;;;;;;14.40;12.90;;;11.60;99.90;;;;;;5049158;28;20641;-72
2022/01/29 08:33:12;;;;;;;15.20;12.77;;;11.70;99.90;;;;;;5050077;28;20766;-71
2022/01/29 08:35:37;;;;;;;15.00;13.50;;;11.70;99.90;;;;;;5043471;28;20515;-71
2022/01/29 08:38:03;;;;;;;14.27;12.97;;;11.70;99.90;;;;;;5033975;28;20828;-71
2022/01/29 08:40:30;;;;;;;14.13;12.63;;;11.70;99.90;;;;;;5033706;28;20530;-71
2022/01/29 08:42:56;;;;;;;14.33;12.93;;;11.80;99.90;;;;;;5020089;28;20481;-72
2022/01/29 08:45:21;;;;;;;15.50;13.90;;;11.80;99.90;;;;;;5031476;28;20422;-72
2022/01/29 08:47:47;;;;;;;16.20;13.50;;;12.00;99.90;;;;;;5016489;28;20665;-71
2022/01/29 08:50:14;;;;;;;15.20;11.83;;;12.10;99.90;;;;;;5033309;28;20409;-72
2022/01/29 08:52:40;;;;;;;13.53;12.10;;;12.20;99.90;;;;;;5033716;28;20315;-68
2022/01/29 08:55:08;;;;;;;17.13;13.27;;;12.10;99.90;;;;;;5016372;28;20675;-68
2022/01/29 08:57:34;;;;;;;15.37;13.23;;;11.70;99.90;;;;;;5035276;28;20182;-70
2022/01/29 09:00:00;;;;;;;17.70;14.17;;;11.50;99.90;;;;;;5045468;28;20427;-69
2022/01/29 09:02:26;;;;;;;14.90;13.40;;;11.40;99.90;;;;;;5033036;28;20174;-68
2022/01/29 09:04:54;;;;;;;16.73;14.23;;;11.00;99.90;;;;;;5024336;28;20414;-69
2022/01/29 09:07:20;;;;;;;15.57;13.60;;;10.80;99.90;;;;;;5023292;28;20426;-67
2022/01/29 09:09:46;;;;;;;15.80;13.97;;;10.80;99.90;;;;;;5053239;28;20470;-68
2022/01/29 09:12:13;;;;;;;15.53;13.93;;;10.70;99.90;;;;;;5026188;28;20457;-87
2022/01/29 09:14:39;;;;;;;16.47;14.77;;;10.50;99.90;;;;;;5033290;28;20266;-68
2022/01/29 09:17:06;;;;;;;15.93;14.27;;;10.30;99.90;;;;;;5033199;28;20423;-68
2022/01/29 09:19:32;;;;;;;18.87;15.90;;;10.20;99.90;;;;;;5041556;28;20435;-69
2022/01/29 09:21:58;;;;;;;16.00;14.30;;;10.20;99.90;;;;;;5038766;28;20967;-69
2022/01/29 09:24:23;;;;;;;16.77;14.90;;;10.20;99.90;;;;;;5046049;28;20417;-69
2022/01/29 09:26:49;;;;;;;16.40;14.17;;;10.10;99.90;;;;;;5038906;28;20185;-69
2022/01/29 09:29:15;;;;;;;16.33;14.40;;;10.00;99.90;;;;;;5046606;28;20648;-70
2022/01/29 09:31:40;;;;;;;16.97;15.17;;;10.00;99.90;;;;;;5046203;28;20203;-69
2022/01/29 09:34:06;;;;;;;16.30;14.07;;;10.00;99.90;;;;;;5040400;28;20628;-69
2022/01/29 09:36:32;;;;;;;14.30;12.80;;;10.10;99.90;;;;;;5047075;28;20190;-68
2022/01/29 09:38:58;;;;;;;15.10;13.57;;;10.10;99.90;;;;;;5031406;28;20187;-71
2022/01/29 09:41:25;;;;;;;14.50;13.10;;;10.00;99.90;;;;;;5044791;28;20264;-71
2022/01/29 09:43:55;;;;;;;16.07;12.83;;;10.00;99.90;;;;;;5018138;28;20183;-69
2022/01/29 09:46:23;;;;;;;13.50;11.97;;;10.00;99.90;;;;;;5031738;28;20411;-69
2022/01/29 09:48:49;;;;;;;12.43;11.33;;;10.10;99.90;;;;;;5007804;28;20793;-69
2022/01/29 09:51:16;;;;;;;13.30;12.00;;;10.20;99.90;;;;;;5034572;28;20540;-87
2022/01/29 09:53:45;;;;;;;12.77;11.60;;;10.10;99.90;;;;;;5033767;28;20190;-70
2022/01/29 09:56:15;;;;;;;13.70;12.30;;;10.10;99.90;;;;;;5002844;28;20425;-71
2022/01/29 09:58:42;;;;;;;12.93;11.60;;;10.10;99.90;;;;;;5028660;28;20433;-69
2022/01/29 10:01:08;;;;;;;13.50;12.20;;;10.10;99.90;;;;;;5032446;28;20943;-68
2022/01/29 10:03:34;;;;;;;13.40;12.00;;;10.10;99.90;;;;;;5031429;28;20793;-69
2022/01/29 10:06:01;;;;;;;13.40;12.00;;;10.10;99.90;;;;;;5032796;28;20456;-68
2022/01/29 10:08:28;;;;;;;13.20;11.90;;;10.10;99.90;;;;;;5031774;28;20503;-69
2022/01/29 10:10:58;;;;;;;12.20;11.00;;;10.10;99.90;;;;;;5014873;28;20972;-69
2022/01/29 10:13:34;;;;;;;10.77;9.60;;;10.10;99.90;;;;;;5032444;28;20452;-69
2022/01/29 10:16:20;;;;;;;12.00;10.73;;;10.10;99.90;;;;;;5032753;28;20452;-68
2022/01/29 10:19:10;;;;;;;11.83;10.73;;;10.00;99.90;;;;;;5032668;28;20476;-68
2022/01/29 10:21:42;;;;;;;12.17;11.07;;;10.00;99.90;;;;;;5031739;28;21274;-68
2022/01/29 10:24:10;;;;;;;12.10;11.10;;;10.10;99.90;;;;;;5032621;28;20468;-68
2022/01/29 10:26:41;;;;;;;13.17;10.90;;;10.20;99.90;;;;;;5033957;28;20457;-69
2022/01/29 10:29:14;;;;;;;14.53;12.10;;;10.10;99.90;;;;;;5035741;28;20416;-68
2022/01/29 10:31:43;;;;;;;13.10;11.90;;;10.10;99.90;;;;;;5031809;28;20455;-68
2022/01/29 10:34:26;;;;;;;349.27;187.93;;;10.10;99.90;;;;;;5045871;28;20509;-68
2022/01/29 10:37:17;;;;;;;69.07;45.00;;;10.10;99.90;;;;;;5039844;28;20436;-68
2022/01/29 10:39:51;;;;;;;14.47;13.07;;;10.20;99.90;;;;;;5046828;28;20561;-69
2022/01/29 10:42:21;;;;;;;14.53;13.13;;;10.10;99.90;;;;;;5052408;28;20436;-83
2022/01/29 10:44:48;;;;;;;16.03;14.53;;;10.10;99.90;;;;;;5038716;28;20490;-68
2022/01/29 10:47:15;;;;;;;14.90;13.40;;;10.10;99.90;;;;;;4998529;28;20425;-68
2022/01/29 10:49:50;;;;;;;15.23;13.63;;;10.10;99.90;;;;;;5031886;28;20423;-68
2022/01/29 10:52:17;;;;;;;15.10;13.60;;;10.10;99.90;;;;;;5032421;28;20945;-68
2022/01/29 10:54:47;;;;;;;14.10;12.70;;;10.20;99.90;;;;;;5044624;28;20425;-68
2022/01/29 10:57:17;;;;;;;14.00;12.60;;;10.20;99.90;;;;;;5052184;28;20829;-68
2022/01/29 10:59:51;;;;;;;13.60;12.30;;;10.20;99.90;;;;;;5017524;28;20412;-68
2022/01/29 11:02:20;;;;;;;14.80;13.40;;;10.20;99.90;;;;;;5051967;28;20509;-69
2022/01/29 11:04:47;;;;;;;13.80;12.40;;;10.30;99.90;;;;;;5052296;28;20463;-70
2022/01/29 11:07:19;;;;;;;14.03;12.70;;;10.40;99.90;;;;;;5054794;28;20427;-69
2022/01/29 11:09:47;;;;;;;13.40;12.10;;;10.40;99.90;;;;;;5056083;28;20411;-68
2022/01/29 11:12:18;;;;;;;16.43;11.80;;;10.40;99.90;;;;;;5049892;28;20452;-68
2022/01/29 11:14:45;;;;;;;13.00;11.43;;;10.40;99.90;;;;;;5017765;28;20448;-69
2022/01/29 11:17:12;;;;;;;12.47;11.27;;;10.40;99.90;;;;;;5035853;28;20431;-68
2022/01/29 11:19:39;;;;;;;13.10;12.00;;;10.40;99.90;;;;;;5017496;28;20426;-69
2022/01/29 11:22:07;;;;;;;13.30;11.50;;;10.40;99.90;;;;;;5045931;28;20466;-69
2022/01/29 11:24:34;;;;;;;12.93;11.60;;;10.40;99.90;;;;;;5074288;28;20408;-68
2022/01/29 11:27:00;;;;;;;11.53;10.43;;;10.30;99.90;;;;;;5065861;28;20476;-69
2022/01/29 11:29:37;;;;;;;11.13;10.10;;;10.30;99.90;;;;;;5054991;28;20418;-69
2022/01/29 11:32:22;;;;;;;233.10;139.93;;;10.30;99.90;;;;;;5054740;28;20249;-69
2022/01/29 11:35:01;;;;;;;11.73;10.63;;;10.40;99.90;;;;;;5058982;28;20432;-68
2022/01/29 11:37:42;;;;;;;11.47;10.47;;;10.40;99.90;;;;;;5054356;28;20422;-69
2022/01/29 11:40:33;;;;;;;9.63;8.83;;;10.30;99.90;;;;;;5055068;28;20929;-68
2022/01/29 11:43:21;;;;;;;9.67;8.77;;;10.40;99.90;;;;;;5055401;28;20462;-68
2022/01/29 11:46:03;;;;;;;9.93;9.00;;;10.40;99.90;;;;;;5055388;28;20475;-69
2022/01/29 11:48:29;;;;;;;10.70;8.57;;;10.50;99.90;;;;;;5052766;28;20399;-69
2022/01/29 11:51:14;;;;;;;9.77;8.87;;;10.50;99.90;;;;;;5054609;28;20473;-68
2022/01/29 11:53:45;;;;;;;11.17;10.13;;;10.40;99.90;;;;;;5054674;28;20409;-69
2022/01/29 11:56:32;;;;;;;8.83;8.07;;;10.40;99.90;;;;;;5053901;28;20448;-69
2022/01/29 11:59:19;;;;;;;9.17;8.37;;;10.40;99.90;;;;;;5055508;28;20418;-68
2022/01/29 12:01:52;;;;;;;7.93;7.33;;;10.40;99.90;;;;;;5053197;28;20451;-69
2022/01/29 12:04:19;;;;;;;8.13;7.43;;;10.40;99.90;;;;;;5055042;28;20923;-69
2022/01/29 12:07:09;;;;;;;8.47;7.77;;;10.50;99.90;;;;;;5054308;28;20465;-68
2022/01/29 12:09:51;;;;;;;7.83;7.23;;;10.50;99.90;;;;;;5054623;28;20426;-69
2022/01/29 12:12:27;;;;;;;7.73;7.13;;;10.50;99.90;;;;;;5054614;28;20963;-68
2022/01/29 12:14:55;;;;;;;8.20;7.50;;;10.50;99.90;;;;;;5053449;28;20418;-68
2022/01/29 12:17:35;;;;;;;7.90;7.30;;;10.50;99.90;;;;;;5053890;28;20411;-69
2022/01/29 12:20:02;;;;;;;7.70;7.10;;;10.50;99.90;;;;;;5054474;28;20867;-68
2022/01/29 12:22:33;;;;;;;8.20;7.50;;;10.50;99.90;;;;;;5052722;28;20465;-69
2022/01/29 12:25:01;;;;;;;7.20;6.70;;;10.50;99.90;;;;;;5054798;28;20760;-68
2022/01/29 12:27:42;;;;;;;7.80;7.20;;;10.50;99.90;;;;;;5054078;28;20413;-69
2022/01/29 12:30:10;;;;;;;7.37;6.87;;;10.50;99.90;;;;;;5053237;28;20433;-68
2022/01/29 12:32:35;;;;;;;7.37;6.87;;;10.50;99.90;;;;;;5052690;28;20453;-69
2022/01/29 12:35:05;;;;;;;7.40;6.90;;;10.60;99.90;;;;;;5054783;28;20413;-69
2022/01/29 12:37:31;;;;;;;7.83;7.10;;;10.60;99.90;;;;;;5052225;28;20178;-69
2022/01/29 12:40:21;;;;;;;7.77;7.17;;;10.60;99.90;;;;;;5054422;28;20905;-69
2022/01/29 12:42:58;;;;;;;6.97;6.40;;;10.70;99.90;;;;;;5054131;28;20483;-69
2022/01/29 12:45:27;;;;;;;6.67;6.17;;;10.70;99.90;;;;;;5054441;28;20414;-87
2022/01/29 12:48:10;;;;;;;6.03;5.63;;;10.80;99.90;;;;;;5057485;28;20412;-69
2022/01/29 12:50:37;;;;;;;6.03;5.63;;;10.90;99.90;;;;;;5053273;28;20411;-68
2022/01/29 12:53:09;;;;;;;5.90;5.50;;;10.80;99.90;;;;;;5054107;28;20435;-68
2022/01/29 12:55:35;;;;;;;6.27;5.73;;;10.80;99.90;;;;;;5053582;28;20411;-68
2022/01/29 12:58:01;;;;;;;5.50;5.10;;;10.80;99.90;;;;;;5052691;28;20481;-69